createdAt,value
2022-09-03T00:00:31.422Z,12.00
2022-09-03T00:03:05.534Z,11.77
2022-09-03T00:05:52.783Z,11.40
2022-09-03T00:08:31.692Z,11.35
2022-09-03T00:11:08.556Z,9.93
2022-09-03T00:13:39.385Z,14.20
2022-09-03T00:16:19.805Z,11.30
2022-09-03T00:19:03.264Z,9.63
2022-09-03T00:21:40.031Z,10.13
2022-09-03T00:24:11.027Z,10.43
2022-09-03T00:26:49.333Z,10.00
2022-09-03T00:29:20.567Z,9.52
2022-09-03T00:31:54.083Z,11.45
2022-09-03T00:34:43.451Z,14.52
2022-09-03T00:37:15.267Z,10.63
2022-09-03T00:39:44.649Z,12.57
2022-09-03T00:42:24.055Z,12.55
2022-09-03T00:45:01.655Z,15.40
2022-09-03T00:47:50.484Z,10.43
2022-09-03T00:50:37.687Z,14.38
2022-09-03T00:53:13.787Z,12.77
2022-09-03T00:55:58.956Z,11.45
2022-09-03T00:58:45.295Z,13.85
2022-09-03T01:01:30.374Z,13.43
2022-09-03T01:04:22.488Z,11.52
2022-09-03T01:06:56.058Z,11.73
2022-09-03T01:09:48.662Z,11.48
2022-09-03T01:12:27.531Z,22.83
2022-09-03T01:15:14.610Z,15.10
2022-09-03T01:17:42.962Z,12.80
2022-09-03T01:20:16.543Z,11.48
2022-09-03T01:22:55.351Z,10.48
2022-09-03T01:25:31.623Z,15.60
2022-09-03T01:28:15.289Z,18.70
2022-09-03T01:30:47.652Z,18.25
2022-09-03T01:36:20.795Z,14.77
2022-09-03T01:39:11.941Z,13.30
2022-09-03T01:42:20.905Z,19.33
2022-09-03T01:45:02.220Z,14.70
2022-09-03T01:47:39.974Z,11.73
2022-09-03T01:50:13.139Z,12.85
2022-09-03T01:52:47.282Z,13.88
2022-09-03T01:55:32.653Z,18.85
2022-09-03T01:58:09.926Z,11.40
2022-09-03T02:00:40.615Z,15.18
2022-09-03T02:03:10.601Z,16.92
2022-09-03T02:05:39.632Z,14.30
2022-09-03T02:08:09.863Z,13.13
2022-09-03T02:10:43.457Z,17.42
2022-09-03T02:13:20.461Z,14.52
2022-09-03T02:15:52.567Z,14.95
2022-09-03T02:18:23.935Z,13.38
2022-09-03T02:20:54.245Z,17.45
2022-09-03T02:23:33.457Z,17.13
2022-09-03T02:26:07.461Z,17.27
2022-09-03T02:28:36.139Z,12.40
2022-09-03T02:31:14.828Z,19.00
2022-09-03T02:33:44.885Z,12.73
2022-09-03T02:36:15.209Z,21.08
2022-09-03T02:38:44.231Z,15.50
2022-09-03T02:41:15.589Z,18.38
2022-09-03T02:43:50.320Z,15.43
2022-09-03T02:46:21.966Z,18.20
2022-09-03T02:48:50.508Z,18.08
2022-09-03T02:51:20.668Z,19.63
2022-09-03T02:53:50.933Z,18.85
2022-09-03T02:56:19.797Z,15.82
2022-09-03T02:58:48.432Z,17.67
2022-09-03T03:01:19.698Z,20.85
2022-09-03T03:03:53.936Z,17.92
2022-09-03T03:06:22.643Z,18.67
2022-09-03T03:08:51.432Z,16.15
2022-09-03T03:11:20.447Z,15.93
2022-09-03T03:13:49.775Z,13.32
2022-09-03T03:16:18.759Z,16.38
2022-09-03T03:18:47.410Z,18.38
2022-09-03T03:21:17.287Z,16.42
2022-09-03T03:23:46.363Z,17.67
2022-09-03T03:26:18.868Z,17.45
2022-09-03T03:28:49.289Z,16.55
2022-09-03T03:31:19.367Z,19.13
2022-09-03T03:33:55.207Z,19.77
2022-09-03T03:36:24.348Z,19.85
2022-09-03T03:38:56.986Z,14.20
2022-09-03T03:41:35.452Z,18.83
2022-09-03T03:44:11.183Z,15.35
2022-09-03T03:46:40.885Z,16.73
2022-09-03T03:49:09.940Z,14.07
2022-09-03T03:51:38.904Z,18.95
2022-09-03T03:54:07.944Z,18.70
2022-09-03T03:56:36.485Z,18.60
2022-09-03T03:59:05.483Z,17.25
2022-09-03T04:01:44.194Z,15.80
2022-09-03T04:04:12.710Z,17.30
2022-09-03T04:06:41.189Z,16.75
2022-09-03T04:09:09.701Z,21.70
2022-09-03T04:11:38.263Z,18.95
2022-09-03T04:14:07.271Z,21.63
2022-09-03T04:16:37.321Z,21.35
2022-09-03T04:19:05.960Z,17.20
2022-09-03T04:21:34.775Z,20.48
2022-09-03T04:24:04.964Z,19.52
2022-09-03T04:26:34.306Z,15.52
2022-09-03T04:29:04.928Z,14.68
2022-09-03T04:31:33.612Z,17.38
2022-09-03T04:34:02.409Z,17.33
2022-09-03T04:36:31.427Z,19.65
2022-09-03T04:39:01.342Z,22.90
2022-09-03T04:41:31.705Z,19.73
2022-09-03T04:44:01.763Z,22.08
2022-09-03T04:46:34.851Z,19.70
2022-09-03T04:49:10.596Z,19.43
2022-09-03T04:51:39.057Z,22.38
2022-09-03T04:54:07.669Z,18.73
2022-09-03T04:56:36.230Z,18.65
2022-09-03T04:59:10.563Z,17.98
2022-09-03T05:01:47.340Z,22.02
2022-09-03T05:04:20.829Z,16.60
2022-09-03T05:06:59.459Z,20.83
2022-09-03T05:09:27.993Z,30.25
2022-09-03T05:11:56.427Z,24.23
2022-09-03T05:14:30.206Z,17.02
2022-09-03T05:16:58.761Z,22.52
2022-09-03T05:19:27.275Z,22.13
2022-09-03T05:21:55.726Z,16.63
2022-09-03T05:24:25.424Z,21.67
2022-09-03T05:26:59.182Z,19.00
2022-09-03T05:29:28.205Z,14.98
2022-09-03T05:31:56.883Z,18.35
2022-09-03T05:34:35.445Z,17.52
2022-09-03T05:37:04.016Z,20.75
2022-09-03T05:39:32.652Z,16.70
2022-09-03T05:42:12.942Z,17.70
2022-09-03T05:44:45.980Z,22.35
2022-09-03T05:47:16.912Z,18.65
2022-09-03T05:49:55.298Z,22.30
2022-09-03T05:52:23.985Z,19.80
2022-09-03T05:54:52.343Z,20.15
2022-09-03T05:57:31.345Z,19.35
2022-09-03T06:00:00.732Z,18.30
2022-09-03T06:02:34.030Z,25.60
2022-09-03T06:05:02.705Z,25.83
2022-09-03T06:07:40.392Z,22.67
2022-09-03T06:10:09.057Z,20.35
2022-09-03T06:12:42.646Z,15.13
2022-09-03T06:15:17.174Z,20.27
2022-09-03T06:17:56.976Z,16.75
2022-09-03T06:20:37.329Z,19.25
2022-09-03T06:23:06.425Z,18.75
2022-09-03T06:25:35.116Z,20.73
2022-09-03T06:28:13.743Z,16.45
2022-09-03T06:30:42.430Z,14.67
2022-09-03T06:33:11.408Z,19.30
2022-09-03T06:35:53.346Z,17.42
2022-09-03T06:38:23.243Z,19.30
2022-09-03T06:40:58.612Z,24.90
2022-09-03T06:43:27.589Z,16.77
2022-09-03T06:46:02.232Z,18.92
2022-09-03T06:48:31.681Z,21.13
2022-09-03T06:51:04.853Z,16.83
2022-09-03T06:53:38.395Z,30.25
2022-09-03T06:56:07.951Z,19.65
2022-09-03T06:58:44.477Z,24.52
2022-09-03T07:01:26.459Z,17.13
2022-09-03T07:03:59.571Z,17.67
2022-09-03T07:06:39.872Z,19.38
2022-09-03T07:09:08.980Z,16.85
2022-09-03T07:11:39.563Z,18.38
2022-09-03T07:14:19.160Z,20.63
2022-09-03T07:16:48.432Z,18.67
2022-09-03T07:19:17.374Z,23.38
2022-09-03T07:21:50.800Z,21.02
2022-09-03T07:24:20.152Z,19.95
2022-09-03T07:26:49.798Z,16.13
2022-09-03T07:29:24.164Z,22.52
2022-09-03T07:31:53.297Z,18.55
2022-09-03T07:34:25.570Z,22.92
2022-09-03T07:36:55.325Z,13.63
2022-09-03T07:39:23.868Z,16.63
2022-09-03T07:41:52.354Z,20.42
2022-09-03T07:44:20.961Z,19.80
2022-09-03T07:46:51.818Z,20.42
2022-09-03T07:49:22.347Z,25.63
2022-09-03T07:51:53.425Z,18.23
2022-09-03T07:54:22.625Z,13.32
2022-09-03T07:56:51.070Z,20.48
2022-09-03T07:59:20.871Z,17.70
2022-09-03T08:01:49.270Z,13.10
2022-09-03T08:04:28.625Z,12.85
2022-09-03T08:06:58.210Z,14.82
2022-09-03T08:09:26.892Z,17.73
2022-09-03T08:11:59.797Z,14.87
2022-09-03T08:14:30.744Z,17.60
2022-09-03T08:17:00.525Z,14.18
2022-09-03T08:19:28.942Z,18.40
2022-09-03T08:21:57.411Z,14.77
2022-09-03T08:24:26.885Z,23.58
2022-09-03T08:26:55.459Z,18.98
2022-09-03T08:29:23.882Z,17.45
2022-09-03T08:31:52.535Z,23.63
2022-09-03T08:34:31.130Z,16.30
2022-09-03T08:37:01.842Z,18.50
2022-09-03T08:39:35.296Z,14.60
2022-09-03T08:42:26.245Z,19.33
2022-09-03T08:45:03.001Z,19.50
2022-09-03T08:47:40.038Z,17.65
2022-09-03T08:50:28.910Z,12.00
2022-09-03T08:53:02.339Z,13.82
2022-09-03T08:55:51.016Z,17.67
2022-09-03T08:58:21.302Z,13.43
2022-09-03T09:01:08.331Z,15.60
2022-09-03T09:03:43.826Z,11.85
2022-09-03T09:06:16.427Z,17.63
2022-09-03T09:08:50.928Z,20.33
2022-09-03T09:11:31.206Z,15.50
2022-09-03T09:17:34.028Z,16.23
2022-09-03T09:20:08.578Z,13.40
2022-09-03T09:22:37.016Z,12.70
2022-09-03T09:25:17.516Z,15.82
2022-09-03T09:27:52.134Z,15.82
2022-09-03T09:30:26.045Z,17.65
2022-09-03T09:33:04.898Z,15.73
2022-09-03T09:35:42.287Z,9.52
2022-09-03T09:38:16.513Z,12.82
2022-09-03T09:40:52.469Z,14.07
2022-09-03T09:43:26.010Z,11.60
2022-09-03T09:45:54.450Z,28.67
2022-09-03T09:48:33.086Z,33.45
2022-09-03T09:51:08.329Z,36.53
2022-09-03T09:53:36.777Z,36.42
2022-09-03T09:56:10.182Z,26.42
2022-09-03T09:58:44.537Z,17.13
2022-09-03T10:01:15.546Z,16.30
2022-09-03T10:03:59.192Z,20.60
2022-09-03T10:06:51.506Z,19.10
2022-09-03T10:12:07.708Z,15.36
2022-09-03T10:14:42.951Z,17.50
2022-09-03T10:17:17.293Z,13.10
2022-09-03T10:22:57.462Z,18.75
2022-09-03T10:25:29.788Z,28.50
2022-09-03T10:28:01.526Z,26.10
2022-09-03T10:30:48.026Z,31.88
2022-09-03T10:33:22.125Z,30.15
2022-09-03T10:36:11.174Z,18.20
2022-09-03T10:38:40.686Z,24.75
2022-09-03T10:41:21.243Z,24.83
2022-09-03T10:44:07.868Z,23.10
2022-09-03T10:46:48.812Z,29.60
2022-09-03T10:52:01.648Z,22.48
2022-09-03T10:54:45.140Z,27.23
2022-09-03T10:57:16.692Z,166.60
2022-09-03T10:59:51.725Z,245.27
2022-09-03T11:02:43.690Z,64.75
2022-09-03T11:05:38.768Z,43.78
2022-09-03T11:08:23.230Z,40.30
2022-09-03T11:10:55.184Z,34.65
2022-09-03T11:13:56.883Z,47.58
2022-09-03T11:16:40.789Z,50.17
2022-09-03T11:19:16.677Z,28.13
2022-09-03T11:21:45.755Z,31.00
2022-09-03T11:24:16.825Z,24.52
2022-09-03T11:26:46.358Z,28.95
2022-09-03T11:29:20.014Z,28.42
2022-09-03T11:31:59.524Z,27.90
2022-09-03T11:34:32.233Z,31.77
2022-09-03T11:37:07.585Z,26.92
2022-09-03T11:39:37.683Z,35.53
2022-09-03T11:42:24.892Z,41.28
2022-09-03T11:44:53.225Z,35.90
2022-09-03T11:47:42.256Z,31.38
2022-09-03T11:50:25.090Z,39.47
2022-09-03T11:53:12.479Z,36.42
2022-09-03T11:55:55.224Z,37.50
2022-09-03T11:58:35.721Z,111.72
2022-09-03T12:01:10.981Z,102.50
2022-09-03T12:04:04.924Z,110.90
2022-09-03T12:06:43.751Z,37.20
2022-09-03T12:09:18.946Z,30.42
2022-09-03T12:12:06.571Z,25.13
2022-09-03T12:14:44.460Z,21.63
2022-09-03T12:17:41.583Z,32.42
2022-09-03T12:20:15.165Z,32.65
2022-09-03T12:22:43.821Z,31.85
2022-09-03T12:25:13.470Z,31.00
2022-09-03T12:27:44.703Z,28.67
2022-09-03T12:30:16.457Z,29.00
2022-09-03T12:32:47.873Z,25.50
2022-09-03T12:38:18.358Z,39.42
2022-09-03T12:43:38.008Z,34.90
2022-09-03T12:46:14.531Z,77.45
2022-09-03T12:52:04.566Z,30.05
2022-09-03T12:54:35.554Z,30.63
2022-09-03T12:57:04.182Z,32.65
2022-09-03T12:59:38.923Z,22.25
2022-09-03T13:02:15.885Z,44.70
2022-09-03T13:04:44.686Z,53.40
2022-09-03T13:07:24.783Z,33.20
2022-09-03T13:10:07.381Z,32.45
2022-09-03T13:12:52.994Z,75.72
2022-09-03T13:15:24.396Z,42.00
2022-09-03T13:17:59.154Z,40.90
2022-09-03T13:20:31.549Z,83.03
2022-09-03T13:23:08.266Z,31.45
2022-09-03T13:29:08.512Z,34.60
2022-09-03T13:31:43.071Z,25.50
2022-09-03T13:34:24.896Z,35.62
2022-09-03T13:40:27.178Z,31.30
2022-09-03T13:43:21.495Z,22.70
2022-09-03T13:45:58.210Z,34.30
2022-09-03T13:48:50.014Z,25.80
2022-09-03T13:51:49.516Z,37.50
2022-09-03T13:54:49.515Z,42.70
2022-09-03T13:57:20.206Z,51.85
2022-09-03T13:59:52.904Z,39.40
2022-09-03T14:02:26.900Z,40.97
2022-09-03T14:04:55.353Z,45.50
2022-09-03T14:10:55.421Z,41.90
2022-09-03T14:16:44.988Z,32.53
2022-09-03T14:19:22.761Z,37.15
2022-09-03T14:21:57.188Z,48.80
2022-09-03T14:24:45.460Z,34.60
2022-09-03T14:27:26.467Z,44.72
2022-09-03T14:29:59.169Z,33.63
2022-09-03T14:32:41.175Z,39.97
2022-09-03T14:35:29.632Z,38.75
2022-09-03T14:38:25.719Z,33.05
2022-09-03T14:41:07.923Z,32.35
2022-09-03T14:43:54.934Z,24.60
2022-09-03T14:46:42.846Z,27.50
2022-09-03T14:49:12.368Z,25.20
2022-09-03T14:51:52.913Z,28.20
2022-09-03T14:54:29.071Z,26.33
2022-09-03T14:59:31.054Z,21.50
2022-09-03T15:02:18.000Z,21.63
2022-09-03T15:05:11.663Z,19.88
2022-09-03T15:07:56.839Z,25.30
2022-09-03T15:10:33.473Z,22.70
2022-09-03T15:13:17.313Z,22.88
2022-09-03T15:16:22.334Z,26.34
2022-09-03T15:19:09.488Z,15.18
2022-09-03T15:21:43.042Z,20.67
2022-09-03T15:24:39.666Z,23.05
2022-09-03T15:30:22.393Z,23.17
2022-09-03T15:32:56.955Z,23.17
2022-09-03T15:35:45.353Z,23.10
2022-09-03T15:38:21.552Z,24.83
2022-09-03T15:44:20.931Z,24.83
2022-09-03T15:47:13.814Z,23.97
2022-09-03T15:50:07.028Z,27.10
2022-09-03T15:52:41.795Z,20.73
2022-09-03T15:55:32.688Z,20.50
2022-09-03T15:58:28.041Z,22.48
2022-09-03T16:01:03.400Z,28.60
2022-09-03T16:07:01.862Z,19.47
2022-09-03T16:09:44.660Z,16.10
2022-09-03T16:12:29.810Z,17.02
2022-09-03T16:15:21.047Z,29.13
2022-09-03T16:17:55.951Z,29.67
2022-09-03T16:20:27.930Z,29.02
2022-09-03T16:23:06.395Z,40.20
2022-09-03T16:25:51.447Z,28.10
2022-09-03T16:28:24.996Z,30.10
2022-09-03T16:31:12.466Z,34.30
2022-09-03T16:33:40.871Z,36.47
2022-09-03T16:36:12.347Z,32.00
2022-09-03T16:38:59.374Z,28.05
2022-09-03T16:41:31.576Z,27.35
2022-09-03T16:43:59.991Z,28.05
2022-09-03T16:46:52.069Z,26.98
2022-09-03T16:49:23.610Z,17.65
2022-09-03T16:52:07.434Z,18.85
2022-09-03T16:54:56.090Z,19.20
2022-09-03T16:57:35.883Z,31.30
2022-09-03T17:00:14.062Z,18.95
2022-09-03T17:02:57.831Z,21.42
2022-09-03T17:05:51.551Z,24.77
2022-09-03T17:08:32.503Z,27.17
2022-09-03T17:11:24.645Z,21.00
2022-09-03T17:14:11.796Z,25.13
2022-09-03T17:17:11.069Z,24.75
2022-09-03T17:19:56.530Z,16.00
2022-09-03T17:22:53.907Z,27.80
2022-09-03T17:25:37.333Z,19.88
2022-09-03T17:28:25.146Z,26.33
2022-09-03T17:31:27.602Z,27.27
2022-09-03T17:34:15.322Z,31.45
2022-09-03T17:37:01.935Z,22.45
2022-09-03T17:39:43.371Z,20.38
2022-09-03T17:42:20.975Z,22.45
2022-09-03T17:45:07.874Z,24.75
2022-09-03T17:48:02.006Z,28.52
2022-09-03T17:50:44.232Z,22.50
2022-09-03T17:56:23.680Z,25.65
2022-09-03T17:58:55.986Z,24.05
2022-09-03T18:01:29.122Z,31.52
2022-09-03T18:04:05.104Z,29.75
2022-09-03T18:06:50.549Z,22.83
2022-09-03T18:09:38.726Z,28.42
2022-09-03T18:12:22.138Z,24.10
2022-09-03T18:14:53.658Z,20.08
2022-09-03T18:17:28.824Z,23.40
2022-09-03T18:20:30.318Z,23.95
2022-09-03T18:23:30.464Z,23.05
2022-09-03T18:26:45.356Z,30.95
2022-09-03T18:29:54.431Z,35.22
2022-09-03T19:11:14.859Z,25.50
2022-09-03T19:14:01.797Z,20.08
2022-09-03T19:17:00.522Z,30.95
2022-09-03T19:19:57.655Z,23.08
2022-09-03T19:22:54.869Z,24.45
2022-09-03T19:25:44.389Z,12.90
2022-09-03T19:28:49.286Z,17.63
2022-09-03T19:31:44.230Z,15.85
2022-09-03T19:34:53.768Z,16.67
2022-09-03T19:37:56.076Z,12.68
2022-09-03T19:40:43.038Z,14.23
2022-09-03T19:43:36.843Z,11.55
2022-09-03T19:46:26.980Z,13.43
2022-09-03T19:49:13.848Z,12.48
2022-09-03T19:52:18.559Z,10.13
2022-09-03T19:55:09.277Z,14.68
2022-09-03T19:57:58.850Z,12.90
2022-09-03T20:00:46.289Z,17.33
2022-09-03T20:03:33.187Z,19.45
2022-09-03T20:06:22.512Z,15.48
2022-09-03T20:09:18.599Z,19.10
2022-09-03T20:11:52.854Z,18.65
2022-09-03T20:14:21.340Z,11.35
2022-09-03T20:16:49.633Z,16.13
2022-09-03T20:19:20.694Z,17.88
2022-09-03T20:22:02.060Z,12.85
2022-09-03T20:24:40.440Z,6.78
2022-09-03T20:27:36.230Z,6.47
2022-09-03T20:30:06.841Z,6.25
2022-09-03T20:32:54.186Z,8.75
2022-09-03T20:35:24.265Z,7.88
2022-09-03T20:38:08.087Z,8.20
2022-09-03T20:40:52.501Z,8.05
2022-09-03T20:43:33.782Z,6.57
2022-09-03T20:46:18.156Z,7.15
2022-09-03T20:48:52.366Z,8.00
2022-09-03T20:51:23.502Z,8.77
2022-09-03T20:54:02.143Z,7.53
2022-09-03T20:56:40.124Z,7.63
2022-09-03T20:59:12.847Z,8.10
2022-09-03T21:01:59.585Z,8.88
2022-09-03T21:04:48.460Z,9.70
2022-09-03T21:07:25.076Z,5.93
2022-09-03T21:10:08.463Z,5.70
2022-09-03T21:12:43.036Z,7.10
2022-09-03T21:15:16.009Z,4.95
2022-09-03T21:17:49.587Z,5.38
2022-09-03T21:20:35.280Z,7.78
2022-09-03T21:23:08.667Z,6.82
2022-09-03T21:25:43.363Z,5.47
2022-09-03T21:28:18.609Z,6.20
2022-09-03T21:35:55.185Z,7.25
2022-09-03T21:38:26.616Z,6.60
2022-09-03T21:41:03.362Z,7.38
2022-09-03T21:43:42.971Z,5.60
2022-09-03T21:46:33.283Z,7.18
2022-09-03T21:49:12.909Z,7.65
2022-09-03T21:51:46.959Z,9.55
2022-09-03T21:54:25.871Z,7.05
2022-09-03T22:00:18.165Z,7.05
2022-09-03T22:02:47.736Z,9.60
2022-09-03T22:05:16.827Z,7.28
2022-09-03T22:07:53.600Z,9.52
2022-09-03T22:10:28.463Z,7.78
2022-09-03T22:13:15.659Z,6.43
2022-09-03T22:15:48.564Z,8.13
2022-09-03T22:18:28.782Z,7.53
2022-09-03T22:21:13.660Z,7.47
2022-09-03T22:23:55.754Z,9.15
2022-09-03T22:26:43.247Z,7.38
2022-09-03T22:29:19.695Z,9.77
2022-09-03T22:35:12.669Z,8.32
2022-09-03T22:38:01.718Z,7.97
2022-09-03T22:40:33.748Z,7.78
2022-09-03T22:43:02.003Z,7.07
2022-09-03T22:45:35.234Z,9.15
2022-09-03T22:48:32.846Z,10.27
2022-09-03T22:51:13.061Z,10.04
2022-09-03T22:54:00.666Z,8.60
2022-09-03T22:56:31.454Z,9.82
2022-09-03T22:59:14.882Z,10.82
2022-09-03T23:01:53.253Z,9.88
2022-09-03T23:04:40.236Z,9.40
2022-09-03T23:07:25.647Z,12.85
2022-09-03T23:09:56.556Z,11.73
2022-09-03T23:15:41.999Z,9.20
2022-09-03T23:18:27.409Z,10.93
2022-09-03T23:21:08.273Z,10.02
2022-09-03T23:23:47.161Z,10.57
2022-09-03T23:26:35.078Z,10.52
2022-09-03T23:32:34.365Z,11.95
2022-09-03T23:35:04.100Z,10.77
2022-09-03T23:37:35.093Z,12.65
2022-09-03T23:40:03.962Z,11.90
2022-09-03T23:42:32.405Z,11.93
2022-09-03T23:45:15.376Z,10.27
2022-09-03T23:48:02.947Z,11.88
2022-09-03T23:50:37.885Z,10.80
2022-09-03T23:53:36.318Z,11.15
2022-09-03T23:56:23.646Z,13.65
2022-09-03T23:59:22.768Z,11.38
